^^
Meteo Knjazevac Station Historical Data
Daily Summary for April 26, 2021 Units:  Both    English   Metric
Daily Weekly Monthly Yearly Custom
  High: Low: Average:
Temperature: 92.8 °F /  33.8 °C 59.4 °F /  15.2 °C 75.8 °F /  24.3 °C
Dew Point: 72.6 °F /  22.6 °C 57.6 °F /  14.2 °C 66 °F /  18.9 °C
Humidity: 95% 48% 74%
Wind Speed: 5mph /  8km/h - 1.1mph /  1.8km/h
Wind Gust: 8mph /  12.9km/h - -
Wind- - South
Pressure: 30.14 in /  1020.5 hPa 30.09 in /  1018.8 hPa -
Precipitation: 0.00 in /  0 mm    
Historical Graphs
 
 
Tabular Data for April 26, 2021
Time Temperature Dew Point Pressure Wind Wind Speed Wind Gust Humidity Rainfall Rate (Hourly) solar Conditions
00:00 66.9 °F /  19.4 °C 62.3 °F /  16.8 °C 30.10in /  1019.2hPa West 1mph /  1.6km/h 2mph /  3.2km/h 85% 0.00in /  0mm 0 W/m2
00:10 66.4 °F /  19.1 °C 61.7 °F /  16.5 °C 30.10in /  1019.2hPa West 1mph /  1.6km/h 2mph /  3.2km/h 85% 0.00in /  0mm 0 W/m2
00:20 65.8 °F /  18.8 °C 61.2 °F /  16.2 °C 30.10in /  1019.2hPa WSW 1mph /  1.6km/h 2mph /  3.2km/h 85% 0.00in /  0mm 0 W/m2
00:30 65.5 °F /  18.6 °C 60.8 °F /  16 °C 30.10in /  1019.2hPa WNW 1mph /  1.6km/h 3mph /  4.8km/h 85% 0.00in /  0mm 0 W/m2
00:40 65.3 °F /  18.5 °C 61 °F /  16.1 °C 30.10in /  1019.2hPa Calm   2mph /  3.2km/h 86% 0.00in /  0mm 0 W/m2
00:50 65.3 °F /  18.5 °C 61 °F /  16.1 °C 30.10in /  1019.2hPa Calm   1mph /  1.6km/h 86% 0.00in /  0mm 0 W/m2
01:00 64.9 °F /  18.3 °C 60.6 °F /  15.9 °C 30.10in /  1019.2hPa Calm   2mph /  3.2km/h 86% 0.00in /  0mm 0 W/m2
01:10 64.7 °F /  18.2 °C 61.1 °F /  16.2 °C 30.10in /  1019.2hPa WNW 1mph /  1.6km/h 3mph /  4.8km/h 88% 0.00in /  0mm 0 W/m2
01:20 64.4 °F /  18 °C 60.1 °F /  15.6 °C 30.10in /  1019.2hPa WNW 1mph /  1.6km/h 5mph /  8km/h 86% 0.00in /  0mm 0 W/m2
01:30 64 °F /  17.8 °C 60.4 °F /  15.8 °C 30.09in /  1018.8hPa WSW 1mph /  1.6km/h 2mph /  3.2km/h 88% 0.00in /  0mm 0 W/m2
01:40 63.7 °F /  17.6 °C 60.1 °F /  15.6 °C 30.10in /  1019.2hPa WSW 2mph /  3.2km/h 3mph /  4.8km/h 88% 0.00in /  0mm 0 W/m2
01:50 63.1 °F /  17.3 °C 59.8 °F /  15.4 °C 30.10in /  1019.2hPa Calm   3mph /  4.8km/h 89% 0.00in /  0mm 0 W/m2
02:00 62.8 °F /  17.1 °C 59.5 °F /  15.3 °C 30.10in /  1019.2hPa Calm   3mph /  4.8km/h 89% 0.00in /  0mm 0 W/m2
02:10 62.6 °F /  17 °C 59.3 °F /  15.2 °C 30.10in /  1019.2hPa West 2mph /  3.2km/h 3mph /  4.8km/h 89% 0.00in /  0mm 0 W/m2
02:20 62.6 °F /  17 °C 59.3 °F /  15.2 °C 30.11in /  1019.5hPa Calm   4mph /  6.4km/h 89% 0.00in /  0mm 0 W/m2
02:30 62.6 °F /  17 °C 59.3 °F /  15.2 °C 30.11in /  1019.5hPa Calm   2mph /  3.2km/h 89% 0.00in /  0mm 0 W/m2
02:40 62.6 °F /  17 °C 59.3 °F /  15.2 °C 30.11in /  1019.5hPa Calm     89% 0.00in /  0mm 0 W/m2
02:50 62.4 °F /  16.9 °C 59.4 °F /  15.2 °C 30.11in /  1019.5hPa Calm   1mph /  1.6km/h 90% 0.00in /  0mm 0 W/m2
03:00 61.9 °F /  16.6 °C 58.9 °F /  14.9 °C 30.11in /  1019.5hPa WNW 1mph /  1.6km/h 2mph /  3.2km/h 90% 0.00in /  0mm 0 W/m2
03:10 61.9 °F /  16.6 °C 58.9 °F /  14.9 °C 30.11in /  1019.5hPa NW 1mph /  1.6km/h 2mph /  3.2km/h 90% 0.00in /  0mm 0 W/m2
03:20 61.9 °F /  16.6 °C 58.9 °F /  14.9 °C 30.11in /  1019.5hPa Calm     90% 0.00in /  0mm 0 W/m2
03:30 61.5 °F /  16.4 °C 58.6 °F /  14.8 °C 30.11in /  1019.5hPa West 1mph /  1.6km/h 2mph /  3.2km/h 90% 0.00in /  0mm 0 W/m2
03:40 61.5 °F /  16.4 °C 58.9 °F /  14.9 °C 30.11in /  1019.5hPa NNW 1mph /  1.6km/h 2mph /  3.2km/h 91% 0.00in /  0mm 0 W/m2
03:50 61 °F /  16.1 °C 58.3 °F /  14.6 °C 30.11in /  1019.5hPa West 1mph /  1.6km/h 2mph /  3.2km/h 91% 0.00in /  0mm 0 W/m2
04:00 60.8 °F /  16 °C 58.2 °F /  14.6 °C 30.11in /  1019.5hPa West 1mph /  1.6km/h 2mph /  3.2km/h 91% 0.00in /  0mm 0 W/m2
04:10 60.6 °F /  15.9 °C 58.6 °F /  14.8 °C 30.11in /  1019.5hPa WNW 1mph /  1.6km/h 2mph /  3.2km/h 93% 0.00in /  0mm 0 W/m2
04:20 60.4 °F /  15.8 °C 58.4 °F /  14.7 °C 30.11in /  1019.5hPa WSW 2mph /  3.2km/h 3mph /  4.8km/h 93% 0.00in /  0mm 0 W/m2
04:30 60.2 °F /  15.7 °C 58.2 °F /  14.6 °C 30.12in /  1019.9hPa West 2mph /  3.2km/h 4mph /  6.4km/h 93% 0.00in /  0mm 0 W/m2
04:40 60.2 °F /  15.7 °C 58.2 °F /  14.6 °C 30.11in /  1019.5hPa WSW 1mph /  1.6km/h 5mph /  8km/h 93% 0.00in /  0mm 0 W/m2
04:50 59.9 °F /  15.5 °C 57.8 °F /  14.3 °C 30.12in /  1019.9hPa WSW 1mph /  1.6km/h 3mph /  4.8km/h 93% 0.00in /  0mm 0 W/m2
05:00 59.5 °F /  15.3 °C 57.8 °F /  14.3 °C 30.12in /  1019.9hPa WSW 2mph /  3.2km/h 5mph /  8km/h 94% 0.00in /  0mm 0 W/m2
05:10 59.5 °F /  15.3 °C 57.8 °F /  14.3 °C 30.12in /  1019.9hPa West 1mph /  1.6km/h 2mph /  3.2km/h 94% 0.00in /  0mm 0 W/m2
05:20 59.4 °F /  15.2 °C 57.6 °F /  14.2 °C 30.12in /  1019.9hPa Calm   3mph /  4.8km/h 94% 0.00in /  0mm 5 W/m2
05:30 59.4 °F /  15.2 °C 57.7 °F /  14.3 °C 30.12in /  1019.9hPa West 1mph /  1.6km/h 2mph /  3.2km/h 94% 0.00in /  0mm 12 W/m2
05:40 59.5 °F /  15.3 °C 57.8 °F /  14.3 °C 30.12in /  1019.9hPa Calm   2mph /  3.2km/h 94% 0.00in /  0mm 22 W/m2
05:50 59.5 °F /  15.3 °C 57.8 °F /  14.3 °C 30.13in /  1020.2hPa Calm   2mph /  3.2km/h 94% 0.00in /  0mm 30 W/m2
06:00 59.5 °F /  15.3 °C 57.8 °F /  14.3 °C 30.13in /  1020.2hPa North 1mph /  1.6km/h 3mph /  4.8km/h 94% 0.00in /  0mm 39 W/m2
06:10 59.7 °F /  15.4 °C 58.3 °F /  14.6 °C 30.13in /  1020.2hPa Calm   3mph /  4.8km/h 95% 0.00in /  0mm 51 W/m2
06:20 59.9 °F /  15.5 °C 58.5 °F /  14.7 °C 30.13in /  1020.2hPa Calm   2mph /  3.2km/h 95% 0.00in /  0mm 77 W/m2
06:30 60.1 °F /  15.6 °C 58.3 °F /  14.6 °C 30.13in /  1020.2hPa Calm   2mph /  3.2km/h 94% 0.00in /  0mm 107 W/m2
06:40 60.3 °F /  15.7 °C 58.5 °F /  14.7 °C 30.13in /  1020.2hPa Calm   2mph /  3.2km/h 94% 0.00in /  0mm 134 W/m2
06:50 60.4 °F /  15.8 °C 59 °F /  15 °C 30.13in /  1020.2hPa Calm   2mph /  3.2km/h 95% 0.00in /  0mm 166 W/m2
07:00 60.8 °F /  16 °C 59.1 °F /  15.1 °C 30.14in /  1020.5hPa Calm   1mph /  1.6km/h 94% 0.00in /  0mm 198 W/m2
07:10 61.2 °F /  16.2 °C 59.8 °F /  15.4 °C 30.14in /  1020.5hPa Calm   2mph /  3.2km/h 95% 0.00in /  0mm 219 W/m2
07:20 61.7 °F /  16.5 °C 60 °F /  15.6 °C 30.14in /  1020.5hPa Calm   2mph /  3.2km/h 94% 0.00in /  0mm 218 W/m2
07:30 62.3 °F /  16.8 °C 60.5 °F /  15.8 °C 30.14in /  1020.5hPa Calm   1mph /  1.6km/h 94% 0.00in /  0mm 249 W/m2
07:40 63 °F /  17.2 °C 61.2 °F /  16.2 °C 30.14in /  1020.5hPa North 2mph /  3.2km/h 4mph /  6.4km/h 94% 0.00in /  0mm 265 W/m2
07:50 63.9 °F /  17.7 °C 61.8 °F /  16.6 °C 30.13in /  1020.2hPa NE 1mph /  1.6km/h 4mph /  6.4km/h 93% 0.00in /  0mm 308 W/m2
08:00 64.6 °F /  18.1 °C 62.8 °F /  17.1 °C 30.14in /  1020.5hPa Calm   2mph /  3.2km/h 94% 0.00in /  0mm 346 W/m2
08:10 65.3 °F /  18.5 °C 63 °F /  17.2 °C 30.14in /  1020.5hPa North 1mph /  1.6km/h 2mph /  3.2km/h 92% 0.00in /  0mm 423 W/m2
08:20 66.2 °F /  19 °C 63.2 °F /  17.3 °C 30.14in /  1020.5hPa WNW 1mph /  1.6km/h 2mph /  3.2km/h 90% 0.00in /  0mm 420 W/m2
08:30 67.1 °F /  19.5 °C 64.1 °F /  17.8 °C 30.14in /  1020.5hPa North 1mph /  1.6km/h 5mph /  8km/h 90% 0.00in /  0mm 423 W/m2
08:40 68 °F /  20 °C 64.3 °F /  17.9 °C 30.14in /  1020.5hPa Calm   4mph /  6.4km/h 88% 0.00in /  0mm 455 W/m2
08:50 68.9 °F /  20.5 °C 64.2 °F /  17.9 °C 30.14in /  1020.5hPa NW 1mph /  1.6km/h 3mph /  4.8km/h 85% 0.00in /  0mm 520 W/m2
09:00 70 °F /  21.1 °C 64.9 °F /  18.3 °C 30.14in /  1020.5hPa Calm   4mph /  6.4km/h 84% 0.00in /  0mm 552 W/m2
09:10 71.8 °F /  22.1 °C 65.3 °F /  18.5 °C 30.14in /  1020.5hPa NNE 2mph /  3.2km/h 6mph /  9.7km/h 80% 0.00in /  0mm 606 W/m2
09:20 73.3 °F /  22.9 °C 66.4 °F /  19.1 °C 30.14in /  1020.5hPa North 1mph /  1.6km/h 5mph /  8km/h 79% 0.00in /  0mm 635 W/m2
09:30 74.5 °F /  23.6 °C 66.1 °F /  18.9 °C 30.14in /  1020.5hPa North 3mph /  4.8km/h 6mph /  9.7km/h 75% 0.00in /  0mm 655 W/m2
09:40 75.9 °F /  24.4 °C 67 °F /  19.4 °C 30.14in /  1020.5hPa NNE 1mph /  1.6km/h 6mph /  9.7km/h 74% 0.00in /  0mm 681 W/m2
09:50 77.1 °F /  25.1 °C 66.9 °F /  19.4 °C 30.13in /  1020.2hPa NNE 2mph /  3.2km/h 5mph /  8km/h 71% 0.00in /  0mm 714 W/m2
10:00 78.1 °F /  25.6 °C 67.1 °F /  19.5 °C 30.13in /  1020.2hPa NNE 1mph /  1.6km/h 4mph /  6.4km/h 69% 0.00in /  0mm 746 W/m2
10:10 79.2 °F /  26.2 °C 67.7 °F /  19.8 °C 30.13in /  1020.2hPa NNE 1mph /  1.6km/h 5mph /  8km/h 68% 0.00in /  0mm 768 W/m2
10:20 79.8 °F /  26.6 °C 68.2 °F /  20.1 °C 30.14in /  1020.5hPa North 3mph /  4.8km/h 7mph /  11.3km/h 68% 0.00in /  0mm 792 W/m2
10:30 80.3 °F /  26.8 °C 68.3 °F /  20.2 °C 30.14in /  1020.5hPa North 1mph /  1.6km/h 5mph /  8km/h 67% 0.00in /  0mm 808 W/m2
10:40 81.1 °F /  27.3 °C 68.3 °F /  20.2 °C 30.13in /  1020.2hPa NNE 2mph /  3.2km/h 6mph /  9.7km/h 65% 0.00in /  0mm 829 W/m2
10:50 81.9 °F /  27.7 °C 68.5 °F /  20.3 °C 30.13in /  1020.2hPa ENE 5mph /  8km/h 7mph /  11.3km/h 64% 0.00in /  0mm 271 W/m2
11:00 82.8 °F /  28.2 °C 69.3 °F /  20.7 °C 30.13in /  1020.2hPa NNE 1mph /  1.6km/h 6mph /  9.7km/h 64% 0.00in /  0mm 835 W/m2
11:10 83.3 °F /  28.5 °C 69.4 °F /  20.8 °C 30.13in /  1020.2hPa NNE 3mph /  4.8km/h 7mph /  11.3km/h 63% 0.00in /  0mm 879 W/m2
11:20 83.7 °F /  28.7 °C 69.3 °F /  20.7 °C 30.13in /  1020.2hPa North 3mph /  4.8km/h 7mph /  11.3km/h 62% 0.00in /  0mm 653 W/m2
11:30 84.2 °F /  29 °C 68.3 °F /  20.2 °C 30.13in /  1020.2hPa NNW 1mph /  1.6km/h 6mph /  9.7km/h 59% 0.00in /  0mm 908 W/m2
11:40 84.8 °F /  29.3 °C 69.4 °F /  20.8 °C 30.13in /  1020.2hPa NE 2mph /  3.2km/h 6mph /  9.7km/h 60% 0.00in /  0mm 922 W/m2
11:50 85.6 °F /  29.8 °C 69.7 °F /  20.9 °C 30.13in /  1020.2hPa NE 2mph /  3.2km/h 7mph /  11.3km/h 59% 0.00in /  0mm 931 W/m2
12:00 85.8 °F /  29.9 °C 69.3 °F /  20.7 °C 30.13in /  1020.2hPa North 1mph /  1.6km/h 6mph /  9.7km/h 58% 0.00in /  0mm 937 W/m2
12:10 86.2 °F /  30.1 °C 69.7 °F /  20.9 °C 30.12in /  1019.9hPa NE 3mph /  4.8km/h 7mph /  11.3km/h 58% 0.00in /  0mm 941 W/m2
12:20 86.5 °F /  30.3 °C 70.5 °F /  21.4 °C 30.12in /  1019.9hPa NNE 1mph /  1.6km/h 6mph /  9.7km/h 59% 0.00in /  0mm 944 W/m2
12:30 87.3 °F /  30.7 °C 69.6 °F /  20.9 °C 30.13in /  1020.2hPa NNE 3mph /  4.8km/h 6mph /  9.7km/h 56% 0.00in /  0mm 794 W/m2
12:40 87.4 °F /  30.8 °C 70.3 °F /  21.3 °C 30.13in /  1020.2hPa North 1mph /  1.6km/h 7mph /  11.3km/h 57% 0.00in /  0mm 946 W/m2
12:50 88 °F /  31.1 °C 70.8 °F /  21.6 °C 30.13in /  1020.2hPa North 2mph /  3.2km/h 6mph /  9.7km/h 57% 0.00in /  0mm 908 W/m2
13:00 88 °F /  31.1 °C 71.3 °F /  21.8 °C 30.12in /  1019.9hPa NE 2mph /  3.2km/h 6mph /  9.7km/h 58% 0.00in /  0mm 694 W/m2
13:10 88 °F /  31.1 °C 70.8 °F /  21.6 °C 30.12in /  1019.9hPa Calm   5mph /  8km/h 57% 0.00in /  0mm 616 W/m2
13:20 88 °F /  31.1 °C 70.9 °F /  21.6 °C 30.12in /  1019.9hPa Calm   6mph /  9.7km/h 57% 0.00in /  0mm 892 W/m2
13:30 88.2 °F /  31.2 °C 71 °F /  21.7 °C 30.12in /  1019.9hPa North 1mph /  1.6km/h 5mph /  8km/h 57% 0.00in /  0mm 850 W/m2
13:40 88.3 °F /  31.3 °C 71.2 °F /  21.8 °C 30.12in /  1019.9hPa North 1mph /  1.6km/h 5mph /  8km/h 57% 0.00in /  0mm 464 W/m2
13:50 88.3 °F /  31.3 °C 70.1 °F /  21.2 °C 30.12in /  1019.9hPa Calm   4mph /  6.4km/h 55% 0.00in /  0mm 752 W/m2
14:00 88.7 °F /  31.5 °C 70.5 °F /  21.4 °C 30.12in /  1019.9hPa North 2mph /  3.2km/h 6mph /  9.7km/h 55% 0.00in /  0mm 720 W/m2
14:10 89.1 °F /  31.7 °C 69.7 °F /  20.9 °C 30.11in /  1019.5hPa North 1mph /  1.6km/h 5mph /  8km/h 53% 0.00in /  0mm 877 W/m2
14:20 89.5 °F /  31.9 °C 70.1 °F /  21.2 °C 30.11in /  1019.5hPa Calm   4mph /  6.4km/h 53% 0.00in /  0mm 863 W/m2
14:30 90.1 °F /  32.3 °C 71.2 °F /  21.8 °C 30.11in /  1019.5hPa North 1mph /  1.6km/h 3mph /  4.8km/h 54% 0.00in /  0mm 846 W/m2
14:40 90.5 °F /  32.5 °C 71 °F /  21.7 °C 30.11in /  1019.5hPa NW 1mph /  1.6km/h 3mph /  4.8km/h 53% 0.00in /  0mm 829 W/m2
14:50 91 °F /  32.8 °C 71.5 °F /  21.9 °C 30.11in /  1019.5hPa North 1mph /  1.6km/h 5mph /  8km/h 53% 0.00in /  0mm 808 W/m2
15:00 91.2 °F /  32.9 °C 71.1 °F /  21.7 °C 30.10in /  1019.2hPa SW 2mph /  3.2km/h 5mph /  8km/h 52% 0.00in /  0mm 790 W/m2
15:10 91.4 °F /  33 °C 70.1 °F /  21.2 °C 30.10in /  1019.2hPa WSW 1mph /  1.6km/h 5mph /  8km/h 50% 0.00in /  0mm 769 W/m2
15:20 91.4 °F /  33 °C 71.9 °F /  22.2 °C 30.10in /  1019.2hPa West 2mph /  3.2km/h 6mph /  9.7km/h 53% 0.00in /  0mm 746 W/m2
15:30 91.8 °F /  33.2 °C 71.1 °F /  21.7 °C 30.10in /  1019.2hPa WSW 1mph /  1.6km/h 6mph /  9.7km/h 51% 0.00in /  0mm 690 W/m2
15:40 92.1 °F /  33.4 °C 70.2 °F /  21.2 °C 30.09in /  1018.8hPa WSW 2mph /  3.2km/h 5mph /  8km/h 49% 0.00in /  0mm 663 W/m2
15:50 91.9 °F /  33.3 °C 71.8 °F /  22.1 °C 30.09in /  1018.8hPa WSW 1mph /  1.6km/h 5mph /  8km/h 52% 0.00in /  0mm 640 W/m2
16:00 92.1 °F /  33.4 °C 70.8 °F /  21.6 °C 30.09in /  1018.8hPa SW 1mph /  1.6km/h 4mph /  6.4km/h 50% 0.00in /  0mm 638 W/m2
16:10 92.3 °F /  33.5 °C 71 °F /  21.7 °C 30.09in /  1018.8hPa West 1mph /  1.6km/h 3mph /  4.8km/h 50% 0.00in /  0mm 611 W/m2
16:20 92.7 °F /  33.7 °C 71.3 °F /  21.8 °C 30.09in /  1018.8hPa Calm   4mph /  6.4km/h 50% 0.00in /  0mm 553 W/m2
16:30 92.8 °F /  33.8 °C 72.1 °F /  22.3 °C 30.09in /  1018.8hPa North 2mph /  3.2km/h 5mph /  8km/h 51% 0.00in /  0mm 541 W/m2
16:40 92.8 °F /  33.8 °C 70.3 °F /  21.3 °C 30.09in /  1018.8hPa North 2mph /  3.2km/h 5mph /  8km/h 48% 0.00in /  0mm 510 W/m2
16:50 92.8 °F /  33.8 °C 70.3 °F /  21.3 °C 30.09in /  1018.8hPa NNW 2mph /  3.2km/h 5mph /  8km/h 48% 0.00in /  0mm 470 W/m2
17:00 92.8 °F /  33.8 °C 70.3 °F /  21.3 °C 30.09in /  1018.8hPa North 1mph /  1.6km/h 6mph /  9.7km/h 48% 0.00in /  0mm 437 W/m2
17:10 92.8 °F /  33.8 °C 72.6 °F /  22.6 °C 30.09in /  1018.8hPa North 5mph /  8km/h 7mph /  11.3km/h 52% 0.00in /  0mm 405 W/m2
17:20 92.5 °F /  33.6 °C 72.3 °F /  22.4 °C 30.09in /  1018.8hPa North 3mph /  4.8km/h 6mph /  9.7km/h 52% 0.00in /  0mm 373 W/m2
17:30 91.9 °F /  33.3 °C 71.8 °F /  22.1 °C 30.10in /  1019.2hPa North 2mph /  3.2km/h 8mph /  12.9km/h 52% 0.00in /  0mm 338 W/m2
17:40 91.6 °F /  33.1 °C 72.6 °F /  22.6 °C 30.09in /  1018.8hPa NNW 3mph /  4.8km/h 7mph /  11.3km/h 54% 0.00in /  0mm 302 W/m2
17:50 91.2 °F /  32.9 °C 71.7 °F /  22.1 °C 30.09in /  1018.8hPa North 2mph /  3.2km/h 6mph /  9.7km/h 53% 0.00in /  0mm 269 W/m2
18:00 90.7 °F /  32.6 °C 71.2 °F /  21.8 °C 30.10in /  1019.2hPa North 2mph /  3.2km/h 7mph /  11.3km/h 53% 0.00in /  0mm 233 W/m2
18:10 90.1 °F /  32.3 °C 71.2 °F /  21.8 °C 30.09in /  1018.8hPa North 2mph /  3.2km/h 5mph /  8km/h 54% 0.00in /  0mm 203 W/m2
18:20 89.8 °F /  32.1 °C 70.9 °F /  21.6 °C 30.09in /  1018.8hPa North 1mph /  1.6km/h 5mph /  8km/h 54% 0.00in /  0mm 175 W/m2
18:30 89.2 °F /  31.8 °C 71 °F /  21.7 °C 30.09in /  1018.8hPa North 1mph /  1.6km/h 4mph /  6.4km/h 55% 0.00in /  0mm 144 W/m2
18:40 88.8 °F /  31.6 °C 70.5 °F /  21.4 °C 30.10in /  1019.2hPa Calm   3mph /  4.8km/h 55% 0.00in /  0mm 71 W/m2
18:50 87.9 °F /  31.1 °C 72.3 °F /  22.4 °C 30.10in /  1019.2hPa Calm   2mph /  3.2km/h 60% 0.00in /  0mm 50 W/m2
19:00 87 °F /  30.6 °C 72.4 °F /  22.4 °C 30.10in /  1019.2hPa Calm   1mph /  1.6km/h 62% 0.00in /  0mm 35 W/m2
19:10 86 °F /  30 °C 71.5 °F /  21.9 °C 30.10in /  1019.2hPa Calm   2mph /  3.2km/h 62% 0.00in /  0mm 29 W/m2
19:20 85.1 °F /  29.5 °C 71.1 °F /  21.7 °C 30.10in /  1019.2hPa Calm   2mph /  3.2km/h 63% 0.00in /  0mm 19 W/m2
19:30 84.4 °F /  29.1 °C 71.3 °F /  21.8 °C 30.10in /  1019.2hPa Calm   2mph /  3.2km/h 65% 0.00in /  0mm 12 W/m2
19:40 83.7 °F /  28.7 °C 72 °F /  22.2 °C 30.10in /  1019.2hPa South 2mph /  3.2km/h 3mph /  4.8km/h 68% 0.00in /  0mm 8 W/m2
19:50 82.9 °F /  28.3 °C 71.6 °F /  22 °C 30.10in /  1019.2hPa South 2mph /  3.2km/h 4mph /  6.4km/h 69% 0.00in /  0mm 4 W/m2
20:00 82 °F /  27.8 °C 71.3 °F /  21.8 °C 30.09in /  1018.8hPa South 1mph /  1.6km/h 5mph /  8km/h 70% 0.00in /  0mm 1 W/m2
20:10 81.3 °F /  27.4 °C 70.6 °F /  21.4 °C 30.09in /  1018.8hPa SSW 2mph /  3.2km/h 4mph /  6.4km/h 70% 0.00in /  0mm 0 W/m2
20:20 80.6 °F /  27 °C 70.7 °F /  21.5 °C 30.09in /  1018.8hPa SSW 2mph /  3.2km/h 6mph /  9.7km/h 72% 0.00in /  0mm 0 W/m2
20:30 80.2 °F /  26.8 °C 70.8 °F /  21.6 °C 30.09in /  1018.8hPa SW 1mph /  1.6km/h 3mph /  4.8km/h 73% 0.00in /  0mm 0 W/m2
20:40 80.1 °F /  26.7 °C 70.6 °F /  21.4 °C 30.09in /  1018.8hPa Calm   2mph /  3.2km/h 73% 0.00in /  0mm 0 W/m2
20:50 79.7 °F /  26.5 °C 70.7 °F /  21.5 °C 30.09in /  1018.8hPa WNW 2mph /  3.2km/h 2mph /  3.2km/h 74% 0.00in /  0mm 0 W/m2
21:00 79.2 °F /  26.2 °C 70.5 °F /  21.4 °C 30.10in /  1019.2hPa West 2mph /  3.2km/h 3mph /  4.8km/h 75% 0.00in /  0mm 0 W/m2
21:10 78.6 °F /  25.9 °C 70.8 °F /  21.6 °C 30.10in /  1019.2hPa WSW 1mph /  1.6km/h 4mph /  6.4km/h 77% 0.00in /  0mm 0 W/m2
21:20 78 °F /  25.6 °C 70.2 °F /  21.2 °C 30.11in /  1019.5hPa SW 2mph /  3.2km/h 4mph /  6.4km/h 77% 0.00in /  0mm 0 W/m2
21:30 77 °F /  25 °C 69.6 °F /  20.9 °C 30.11in /  1019.5hPa West 3mph /  4.8km/h 5mph /  8km/h 78% 0.00in /  0mm 0 W/m2
21:40 76.5 °F /  24.7 °C 69.1 °F /  20.6 °C 30.11in /  1019.5hPa West 1mph /  1.6km/h 4mph /  6.4km/h 78% 0.00in /  0mm 0 W/m2
21:50 75.9 °F /  24.4 °C 68.6 °F /  20.3 °C 30.11in /  1019.5hPa SSW 1mph /  1.6km/h 2mph /  3.2km/h 78% 0.00in /  0mm 0 W/m2
22:00 75.6 °F /  24.2 °C 68.6 °F /  20.3 °C 30.12in /  1019.9hPa SW 2mph /  3.2km/h 2mph /  3.2km/h 79% 0.00in /  0mm 0 W/m2
22:10 74.9 °F /  23.8 °C 68 °F /  20 °C 30.12in /  1019.9hPa SW 1mph /  1.6km/h 3mph /  4.8km/h 79% 0.00in /  0mm 0 W/m2
22:20 74.4 °F /  23.6 °C 67.5 °F /  19.7 °C 30.12in /  1019.9hPa South 2mph /  3.2km/h 3mph /  4.8km/h 79% 0.00in /  0mm 0 W/m2
22:30 73.8 °F /  23.2 °C 67.3 °F /  19.6 °C 30.12in /  1019.9hPa South 2mph /  3.2km/h 3mph /  4.8km/h 80% 0.00in /  0mm 0 W/m2
22:40 73.4 °F /  23 °C 66.9 °F /  19.4 °C 30.12in /  1019.9hPa NW 1mph /  1.6km/h 2mph /  3.2km/h 80% 0.00in /  0mm 0 W/m2
22:50 73 °F /  22.8 °C 66.9 °F /  19.4 °C 30.12in /  1019.9hPa SSW 2mph /  3.2km/h 4mph /  6.4km/h 81% 0.00in /  0mm 0 W/m2
23:00 72.7 °F /  22.6 °C 66.5 °F /  19.2 °C 30.12in /  1019.9hPa Calm   2mph /  3.2km/h 81% 0.00in /  0mm 0 W/m2
23:10 72.3 °F /  22.4 °C 66.9 °F /  19.4 °C 30.13in /  1020.2hPa Calm   2mph /  3.2km/h 83% 0.00in /  0mm 0 W/m2
23:20 72 °F /  22.2 °C 66.9 °F /  19.4 °C 30.13in /  1020.2hPa Calm   2mph /  3.2km/h 84% 0.00in /  0mm 0 W/m2
23:30 71.2 °F /  21.8 °C 66.2 °F /  19 °C 30.13in /  1020.2hPa Calm   2mph /  3.2km/h 84% 0.00in /  0mm 0 W/m2
23:40 70.9 °F /  21.6 °C 66.1 °F /  18.9 °C 30.14in /  1020.5hPa Calm   1mph /  1.6km/h 85% 0.00in /  0mm 0 W/m2
23:50 70.4 °F /  21.3 °C 65.7 °F /  18.7 °C 30.14in /  1020.5hPa WSW 1mph /  1.6km/h 2mph /  3.2km/h 85% 0.00in /  0mm 0 W/m2
Knjazevac, Serbia
Compliments of Weather Underground - 2 mb